createdAt,value
2022-08-02T00:01:11.068Z,101097.84
2022-08-02T00:03:41.598Z,101098.28
2022-08-02T00:06:09.440Z,101103.31
2022-08-02T00:08:36.924Z,101110.19
2022-08-02T00:11:04.860Z,101111.28
2022-08-02T00:13:35.752Z,101120.88
2022-08-02T00:16:03.571Z,101123.53
2022-08-02T00:18:31.725Z,101108.47
2022-08-02T00:21:00.639Z,101105.78
2022-08-02T00:23:31.157Z,101112.72
2022-08-02T00:26:01.697Z,101111.94
2022-08-02T00:28:32.707Z,101112.34
2022-08-02T00:31:03.160Z,101116.69
2022-08-02T00:34:27.637Z,101112.38
2022-08-02T00:36:28.327Z,101121.88
2022-08-02T00:39:03.348Z,101119.50
2022-08-02T00:41:35.249Z,101103.63
2022-08-02T00:44:02.841Z,101103.25
2022-08-02T00:46:30.619Z,101100.28
2022-08-02T00:49:09.959Z,101093.56
2022-08-02T00:51:39.110Z,101103.25
2022-08-02T00:54:16.737Z,101105.72
2022-08-02T00:56:49.679Z,101097.88
2022-08-02T00:59:18.823Z,101110.53
2022-08-02T01:01:54.490Z,101104.69
2022-08-02T01:04:31.779Z,101107.16
2022-08-02T01:07:14.165Z,101111.13
2022-08-02T01:09:50.570Z,101107.47
2022-08-02T01:12:18.325Z,101106.75
2022-08-02T01:15:15.270Z,101118.84
2022-08-02T01:18:24.795Z,101117.47
2022-08-02T01:22:03.927Z,101119.34
2022-08-02T01:25:40.020Z,101126.66
2022-08-02T01:28:51.205Z,101126.22
2022-08-02T01:31:32.767Z,101128.13
2022-08-02T01:34:21.218Z,101125.09
2022-08-02T01:37:09.495Z,101139.47
2022-08-02T01:39:41.080Z,101128.13
2022-08-02T01:42:13.823Z,101134.00
2022-08-02T01:44:49.961Z,101135.59
2022-08-02T01:47:32.233Z,101135.28
2022-08-02T01:50:06.004Z,101138.63
2022-08-02T01:52:53.419Z,101135.69
2022-08-02T01:55:56.685Z,101126.06
2022-08-02T01:58:24.928Z,101128.84
2022-08-02T02:01:02.222Z,101133.81
2022-08-02T02:03:34.542Z,101121.75
2022-08-02T02:06:10.485Z,101132.56
2022-08-02T02:08:42.447Z,101134.13
2022-08-02T02:12:06.257Z,101131.84
2022-08-02T02:14:12.657Z,101140.28
2022-08-02T02:16:48.001Z,101142.38
2022-08-02T02:19:24.093Z,101126.53
2022-08-02T02:21:56.669Z,101135.22
2022-08-02T02:24:25.188Z,101130.34
2022-08-02T02:26:53.626Z,101136.94
2022-08-02T02:29:29.999Z,101133.88
2022-08-02T02:32:06.059Z,101132.59
2022-08-02T02:34:45.700Z,101127.53
2022-08-02T02:37:29.437Z,101130.56
2022-08-02T02:40:08.697Z,101137.53
2022-08-02T02:42:38.038Z,101133.66
2022-08-02T02:45:11.194Z,101134.78
2022-08-02T02:47:41.563Z,101136.50
2022-08-02T02:50:11.728Z,101132.47
2022-08-02T02:52:56.073Z,101134.94
2022-08-02T02:55:27.556Z,101133.00
2022-08-02T02:57:59.037Z,101142.63
2022-08-02T03:00:45.844Z,101136.75
2022-08-02T03:03:19.725Z,101147.41
2022-08-02T03:05:50.016Z,101142.00
2022-08-02T03:08:27.402Z,101147.59
2022-08-02T03:10:58.271Z,101146.22
2022-08-02T03:13:33.121Z,101150.19
2022-08-02T03:16:08.557Z,101148.13
2022-08-02T03:18:40.126Z,101152.19
2022-08-02T03:21:12.911Z,101156.97
2022-08-02T03:23:46.086Z,101146.25
2022-08-02T03:26:13.873Z,101154.38
2022-08-02T03:28:42.308Z,101155.44
2022-08-02T03:31:10.119Z,101146.75
2022-08-02T03:33:38.982Z,101150.50
2022-08-02T03:36:17.058Z,101152.66
2022-08-02T03:38:51.313Z,101146.22
2022-08-02T03:41:24.755Z,101144.78
2022-08-02T03:43:52.747Z,101153.47
2022-08-02T03:46:24.985Z,101156.34
2022-08-02T03:48:55.091Z,101155.88
2022-08-02T03:51:25.274Z,101164.53
2022-08-02T03:53:53.161Z,101157.47
2022-08-02T03:56:22.988Z,101154.59
2022-08-02T03:58:51.069Z,101158.72
2022-08-02T04:01:21.170Z,101162.81
2022-08-02T04:03:48.700Z,101168.28
2022-08-02T04:06:19.210Z,101173.00
2022-08-02T04:08:54.563Z,101174.31
2022-08-02T04:11:33.799Z,101178.13
2022-08-02T04:14:11.289Z,101185.56
2022-08-02T04:16:47.543Z,101187.94
2022-08-02T04:19:28.006Z,101188.69
2022-08-02T04:21:57.057Z,101194.19
2022-08-02T04:24:43.348Z,101195.13
2022-08-02T04:28:15.173Z,101195.06
2022-08-02T04:30:09.050Z,101195.59
2022-08-02T04:32:43.712Z,101194.50
2022-08-02T04:35:19.040Z,101196.19
2022-08-02T04:38:09.624Z,101197.44
2022-08-02T04:40:41.176Z,101197.75
2022-08-02T04:43:08.502Z,101199.66
2022-08-02T04:45:41.787Z,101206.13
2022-08-02T04:48:08.920Z,101204.00
2022-08-02T04:50:42.560Z,101203.75
2022-08-02T04:53:13.007Z,101210.47
2022-08-02T04:55:43.376Z,101212.69
2022-08-02T04:58:39.397Z,101198.63
2022-08-02T05:01:16.456Z,101199.16
2022-08-02T05:03:46.804Z,101201.69
2022-08-02T05:06:19.324Z,101202.38
2022-08-02T05:08:52.899Z,101199.00
2022-08-02T05:11:25.722Z,101208.69
2022-08-02T05:14:03.107Z,101204.50
2022-08-02T05:16:31.195Z,101208.75
2022-08-02T05:19:02.747Z,101213.78
2022-08-02T05:21:31.636Z,101206.75
2022-08-02T05:23:59.110Z,101209.84
2022-08-02T05:26:35.419Z,101200.16
2022-08-02T05:29:04.881Z,101205.59
2022-08-02T05:31:32.565Z,101213.53
2022-08-02T05:34:00.970Z,101209.03
2022-08-02T05:36:30.263Z,101215.03
2022-08-02T05:39:05.005Z,101214.31
2022-08-02T05:41:39.246Z,101216.72
2022-08-02T05:44:16.936Z,101218.41
2022-08-02T05:49:46.191Z,101226.56
2022-08-02T05:53:20.639Z,101231.00
2022-08-02T05:57:43.586Z,101244.59
2022-08-02T06:00:44.646Z,101241.53
2022-08-02T06:03:48.357Z,101244.59
2022-08-02T06:06:25.550Z,101252.53
2022-08-02T06:09:26.859Z,101252.59
2022-08-02T06:12:33.041Z,101250.03
2022-08-02T06:15:08.667Z,101247.03
2022-08-02T06:17:41.813Z,101254.66
2022-08-02T06:20:14.769Z,101251.59
2022-08-02T06:22:53.058Z,101239.41
2022-08-02T06:25:51.238Z,101249.69
2022-08-02T06:28:11.282Z,101244.31
2022-08-02T06:30:40.843Z,101247.88
2022-08-02T06:33:11.079Z,101248.63
2022-08-02T06:36:27.795Z,101246.13
2022-08-02T06:39:42.881Z,101250.31
2022-08-02T06:42:26.930Z,101250.00
2022-08-02T06:44:57.834Z,101248.53
2022-08-02T06:47:26.771Z,101246.41
2022-08-02T06:49:55.812Z,101242.72
2022-08-02T06:52:31.326Z,101237.22
2022-08-02T06:55:02.189Z,101244.56
2022-08-02T06:57:30.772Z,101244.75
2022-08-02T07:00:01.593Z,101238.41
2022-08-02T07:02:32.818Z,101234.13
2022-08-02T07:05:00.073Z,101224.00
2022-08-02T07:07:28.137Z,101230.78
2022-08-02T07:10:00.497Z,101218.72
2022-08-02T07:12:31.842Z,101220.72
2022-08-02T07:15:01.424Z,101219.78
2022-08-02T07:17:29.746Z,101223.31
2022-08-02T07:19:58.411Z,101224.66
2022-08-02T07:22:28.061Z,101222.72
2022-08-02T07:25:01.302Z,101226.00
2022-08-02T07:27:32.054Z,101227.03
2022-08-02T07:30:00.510Z,101221.41
2022-08-02T07:32:34.499Z,101223.81
2022-08-02T07:35:03.390Z,101228.22
2022-08-02T07:37:57.999Z,101222.09
2022-08-02T07:40:25.105Z,101214.59
2022-08-02T07:43:00.969Z,101221.53
2022-08-02T07:45:32.235Z,101220.09
2022-08-02T07:47:59.454Z,101220.84
2022-08-02T07:50:28.262Z,101217.06
2022-08-02T07:52:57.682Z,101222.97
2022-08-02T07:55:35.154Z,101216.75
2022-08-02T07:58:11.485Z,101212.16
2022-08-02T08:00:51.278Z,101203.84
2022-08-02T08:03:18.378Z,101202.78
2022-08-02T08:05:57.921Z,101210.41
2022-08-02T08:08:35.951Z,101211.81
2022-08-02T08:11:10.302Z,101216.00
2022-08-02T08:13:37.611Z,101208.56
2022-08-02T08:16:06.312Z,101210.94
2022-08-02T08:18:48.064Z,101208.13
2022-08-02T08:21:15.361Z,101205.63
2022-08-02T08:24:00.897Z,101196.44
2022-08-02T08:27:03.191Z,101193.44
2022-08-02T08:29:54.689Z,101190.91
2022-08-02T08:32:29.406Z,101198.03
2022-08-02T08:34:56.817Z,101194.00
2022-08-02T08:37:27.414Z,101190.81
2022-08-02T08:39:57.921Z,101192.97
2022-08-02T08:42:29.731Z,101197.88
2022-08-02T08:44:59.106Z,101196.94
2022-08-02T08:47:51.825Z,101189.25
2022-08-02T08:50:26.578Z,101193.44
2022-08-02T08:53:18.471Z,101188.63
2022-08-02T08:55:48.641Z,101190.91
2022-08-02T08:58:15.711Z,101191.31
2022-08-02T09:00:42.725Z,101195.03
2022-08-02T09:03:10.556Z,101193.56
2022-08-02T09:05:40.798Z,101185.41
2022-08-02T09:08:13.482Z,101187.06
2022-08-02T09:10:48.855Z,101201.84
2022-08-02T09:13:38.948Z,101190.69
2022-08-02T09:16:14.749Z,101181.56
2022-08-02T09:18:46.679Z,101183.91
2022-08-02T09:21:17.284Z,101178.72
2022-08-02T09:23:53.024Z,101187.72
2022-08-02T09:26:29.324Z,101183.88
2022-08-02T09:29:03.232Z,101182.16
2022-08-02T09:31:33.926Z,101176.59
2022-08-02T09:34:01.708Z,101172.31
2022-08-02T09:36:43.651Z,101181.25
2022-08-02T09:39:15.562Z,101179.97
2022-08-02T09:41:46.838Z,101176.16
2022-08-02T09:44:21.776Z,101172.03
2022-08-02T09:47:00.240Z,101170.13
2022-08-02T09:49:33.842Z,101164.13
2022-08-02T09:52:02.627Z,101173.41
2022-08-02T09:54:30.562Z,101169.06
2022-08-02T09:57:01.935Z,101160.53
2022-08-02T09:59:30.871Z,101160.22
2022-08-02T10:02:04.063Z,101168.28
2022-08-02T10:04:34.200Z,101150.41
2022-08-02T10:07:14.146Z,101146.66
2022-08-02T10:09:46.473Z,101158.75
2022-08-02T10:12:15.519Z,101148.97
2022-08-02T10:14:44.032Z,101155.56
2022-08-02T10:17:12.059Z,101158.41
2022-08-02T10:20:03.208Z,101161.94
2022-08-02T10:22:27.501Z,101163.00
2022-08-02T10:24:55.004Z,101158.25
2022-08-02T10:27:25.049Z,101160.63
2022-08-02T10:29:58.101Z,101159.75
2022-08-02T10:32:37.502Z,101156.03
2022-08-02T10:35:19.402Z,101157.63
2022-08-02T10:38:01.238Z,101145.09
2022-08-02T10:40:58.587Z,101161.25
2022-08-02T10:43:43.154Z,101164.41
2022-08-02T10:46:37.189Z,101150.22
2022-08-02T10:52:18.175Z,101143.28
2022-08-02T10:55:01.863Z,101132.56
2022-08-02T10:57:33.922Z,101134.91
2022-08-02T11:00:27.290Z,101124.44
2022-08-02T11:02:54.313Z,101124.41
2022-08-02T11:05:42.854Z,101113.06
2022-08-02T11:08:23.599Z,101109.22
2022-08-02T11:11:26.156Z,101110.75
2022-08-02T11:14:14.254Z,101108.81
2022-08-02T11:17:02.900Z,101106.66
2022-08-02T11:19:35.289Z,101097.41
2022-08-02T11:22:11.488Z,101086.31
2022-08-02T11:24:54.045Z,101092.13
2022-08-02T11:27:29.641Z,101091.00
2022-08-02T11:29:56.950Z,101086.31
2022-08-02T11:32:30.928Z,101086.66
2022-08-02T11:34:59.123Z,101083.00
2022-08-02T11:37:46.126Z,101087.22
2022-08-02T11:40:19.533Z,101089.84
2022-08-02T11:42:50.621Z,101090.88
2022-08-02T11:45:28.958Z,101096.34
2022-08-02T11:47:57.326Z,101087.34
2022-08-02T11:50:29.602Z,101088.78
2022-08-02T11:52:58.035Z,101091.09
2022-08-02T11:55:34.822Z,101087.75
2022-08-02T11:58:07.936Z,101084.56
2022-08-02T12:00:36.307Z,101085.84
2022-08-02T12:03:07.828Z,101078.53
2022-08-02T12:08:25.619Z,101081.66
2022-08-02T12:10:52.966Z,101087.06
2022-08-02T12:13:20.447Z,101074.31
2022-08-02T12:15:48.266Z,101068.22
2022-08-02T12:18:39.346Z,101073.72
2022-08-02T12:21:29.081Z,101060.59
2022-08-02T12:23:59.999Z,101055.19
2022-08-02T12:26:29.118Z,101069.38
2022-08-02T12:28:59.917Z,101066.47
2022-08-02T12:31:56.859Z,101062.75
2022-08-02T12:34:31.469Z,101058.25
2022-08-02T12:37:08.292Z,101058.09
2022-08-02T12:39:41.510Z,101060.63
2022-08-02T12:42:12.888Z,101051.34
2022-08-02T12:44:59.661Z,101053.47
2022-08-02T12:47:36.086Z,101061.94
2022-08-02T12:50:31.212Z,101058.41
2022-08-02T12:53:17.684Z,101047.34
2022-08-02T12:56:03.932Z,101053.25
2022-08-02T12:58:46.000Z,101057.78
2022-08-02T13:01:20.075Z,101040.47
2022-08-02T13:04:10.420Z,101041.41
2022-08-02T13:06:45.762Z,101031.13
2022-08-02T13:09:17.245Z,101034.94
2022-08-02T13:11:45.507Z,101030.34
2022-08-02T13:14:14.978Z,101033.09
2022-08-02T13:16:45.648Z,101033.22
2022-08-02T13:19:15.357Z,101030.06
2022-08-02T13:22:01.838Z,101035.78
2022-08-02T13:24:40.695Z,101035.13
2022-08-02T13:27:21.617Z,101036.09
2022-08-02T13:29:54.015Z,101039.59
2022-08-02T13:32:22.012Z,101020.06
2022-08-02T13:34:51.350Z,101014.00
2022-08-02T13:37:18.956Z,101019.81
2022-08-02T13:40:00.512Z,101011.00
2022-08-02T13:42:36.900Z,101003.16
2022-08-02T13:45:12.734Z,101007.63
2022-08-02T13:48:04.750Z,101003.25
2022-08-02T13:50:32.127Z,101002.69
2022-08-02T13:52:59.100Z,101001.25
2022-08-02T13:55:26.320Z,100991.94
2022-08-02T13:57:54.321Z,100992.94
2022-08-02T14:00:34.210Z,100988.44
2022-08-02T14:03:06.116Z,100982.38
2022-08-02T14:05:47.437Z,100976.47
2022-08-02T14:08:24.709Z,100990.59
2022-08-02T14:10:57.209Z,100982.31
2022-08-02T14:13:24.827Z,100989.63
2022-08-02T14:15:51.908Z,100974.50
2022-08-02T14:18:22.821Z,100978.00
2022-08-02T14:20:49.812Z,100973.44
2022-08-02T14:23:19.835Z,100963.00
2022-08-02T14:26:14.160Z,100962.19
2022-08-02T14:28:57.455Z,100957.97
2022-08-02T14:31:27.612Z,100962.56
2022-08-02T14:33:54.684Z,100958.69
2022-08-02T14:36:27.248Z,100959.69
2022-08-02T14:38:59.561Z,100959.88
2022-08-02T14:41:26.642Z,100954.44
2022-08-02T14:44:16.574Z,100956.94
2022-08-02T14:46:45.465Z,100955.03
2022-08-02T14:49:14.485Z,100951.66
2022-08-02T14:51:43.936Z,100944.28
2022-08-02T14:54:14.796Z,100950.75
2022-08-02T14:56:51.779Z,100941.44
2022-08-02T14:59:19.185Z,100936.03
2022-08-02T15:01:46.748Z,100931.72
2022-08-02T15:04:13.877Z,100938.09
2022-08-02T15:06:41.426Z,100925.13
2022-08-02T15:09:13.732Z,100927.16
2022-08-02T15:11:47.348Z,100924.22
2022-08-02T15:14:34.098Z,100922.78
2022-08-02T15:17:01.369Z,100921.56
2022-08-02T15:19:56.197Z,100925.31
2022-08-02T15:22:33.767Z,100918.47
2022-08-02T15:25:00.887Z,100921.13
2022-08-02T15:27:30.115Z,100917.72
2022-08-02T15:30:00.635Z,100921.56
2022-08-02T15:32:28.318Z,100932.50
2022-08-02T15:34:55.424Z,100929.53
2022-08-02T15:37:25.994Z,100926.97
2022-08-02T15:40:02.809Z,100932.00
2022-08-02T15:42:30.739Z,100926.56
2022-08-02T15:44:59.300Z,100927.06
2022-08-02T15:47:32.381Z,100919.88
2022-08-02T15:49:59.362Z,100920.69
2022-08-02T15:52:26.758Z,100932.56
2022-08-02T15:54:53.930Z,100920.69
2022-08-02T15:57:21.491Z,100922.91
2022-08-02T15:59:48.657Z,100914.78
2022-08-02T16:02:18.964Z,100919.09
2022-08-02T16:04:47.844Z,100918.56
2022-08-02T16:07:15.110Z,100911.06
2022-08-02T16:09:45.142Z,100908.91
2022-08-02T16:12:18.967Z,100910.78
2022-08-02T16:14:46.699Z,100908.47
2022-08-02T16:17:48.569Z,100915.75
2022-08-02T16:20:05.084Z,100913.03
2022-08-02T16:22:32.222Z,100915.81
2022-08-02T16:24:59.392Z,100907.88
2022-08-02T16:27:27.161Z,100910.13
2022-08-02T16:29:54.659Z,100909.00
2022-08-02T16:32:22.171Z,100906.63
2022-08-02T16:35:07.918Z,100909.13
2022-08-02T16:37:51.768Z,100907.94
2022-08-02T16:40:24.824Z,100909.56
2022-08-02T16:43:00.428Z,100905.59
2022-08-02T16:45:32.770Z,100909.63
2022-08-02T16:48:05.569Z,100906.97
2022-08-02T16:50:33.838Z,100902.22
2022-08-02T16:53:00.971Z,100887.50
2022-08-02T16:55:34.794Z,100887.94
2022-08-02T16:58:01.965Z,100892.25
2022-08-02T17:00:30.168Z,100890.78
2022-08-02T17:02:59.125Z,100893.66
2022-08-02T17:05:37.889Z,100888.56
2022-08-02T17:08:31.677Z,100887.59
2022-08-02T17:11:03.366Z,100898.84
2022-08-02T17:13:32.290Z,100896.28
2022-08-02T17:16:20.645Z,100893.50
2022-08-02T17:18:49.552Z,100891.34
2022-08-02T17:21:18.311Z,100893.25
2022-08-02T17:24:05.709Z,100902.38
2022-08-02T17:26:34.223Z,100901.06
2022-08-02T17:29:16.598Z,100898.06
2022-08-02T17:34:36.235Z,100904.81
2022-08-02T17:37:05.701Z,100902.22
2022-08-02T17:39:44.516Z,100914.63
2022-08-02T17:42:23.239Z,100914.91
2022-08-02T17:45:25.806Z,100923.75
2022-08-02T17:48:04.772Z,100912.03
2022-08-02T17:50:34.705Z,100915.31
2022-08-02T17:53:02.252Z,100907.13
2022-08-02T17:55:33.299Z,100911.47
2022-08-02T17:58:00.327Z,100918.28
2022-08-02T18:00:38.068Z,100912.19
2022-08-02T18:03:07.927Z,100919.63
2022-08-02T18:05:40.191Z,100919.31
2022-08-02T18:08:23.620Z,100920.63
2022-08-02T18:10:56.713Z,100922.25
2022-08-02T18:13:24.274Z,100913.78
2022-08-02T18:15:59.424Z,100930.41
2022-08-02T18:18:29.995Z,100927.53
2022-08-02T18:21:15.421Z,100927.34
2022-08-02T18:23:49.372Z,100932.56
2022-08-02T18:29:06.159Z,100928.66
2022-08-02T18:31:39.752Z,100936.13
2022-08-02T18:34:10.011Z,100929.41
2022-08-02T18:36:37.017Z,100927.59
2022-08-02T18:39:16.367Z,100932.25
2022-08-02T18:41:47.873Z,100937.84
2022-08-02T18:44:19.584Z,100944.56
2022-08-02T18:46:49.352Z,100941.16
2022-08-02T18:49:16.948Z,100939.38
2022-08-02T18:51:45.273Z,100940.44
2022-08-02T18:54:12.620Z,100938.88
2022-08-02T18:56:40.176Z,100930.03
2022-08-02T18:59:16.997Z,100938.50
2022-08-02T19:01:50.498Z,100948.66
2022-08-02T19:04:26.852Z,100939.53
2022-08-02T19:06:56.499Z,100941.16
2022-08-02T19:09:23.915Z,100937.50
2022-08-02T19:11:51.145Z,100939.53
2022-08-02T19:14:27.413Z,100942.22
2022-08-02T19:16:58.179Z,100936.13
2022-08-02T19:19:29.035Z,100935.63
2022-08-02T19:22:15.999Z,100941.25
2022-08-02T19:24:47.899Z,100935.31
2022-08-02T19:27:15.521Z,100944.31
2022-08-02T19:29:50.821Z,100944.03
2022-08-02T19:32:42.938Z,100938.00
2022-08-02T19:35:19.311Z,100946.59
2022-08-02T19:38:05.267Z,100938.94
2022-08-02T19:40:32.354Z,100935.38
2022-08-02T19:44:26.681Z,100940.97
2022-08-02T19:45:51.396Z,100948.28
2022-08-02T19:48:24.071Z,100941.22
2022-08-02T19:50:56.366Z,100942.41
2022-08-02T19:53:28.882Z,100949.09
2022-08-02T19:56:02.777Z,100936.84
2022-08-02T19:58:44.780Z,100941.19
2022-08-02T20:01:14.985Z,100953.75
2022-08-02T20:03:51.500Z,100948.81
2022-08-02T20:06:29.455Z,100938.09
2022-08-02T20:09:01.287Z,100944.28
2022-08-02T20:11:34.609Z,100940.47
2022-08-02T20:14:05.338Z,100949.00
2022-08-02T20:16:34.415Z,100947.38
2022-08-02T20:19:04.613Z,100948.09
2022-08-02T20:21:35.418Z,100943.44
2022-08-02T20:24:09.825Z,100948.09
2022-08-02T20:26:47.752Z,100948.00
2022-08-02T20:29:17.754Z,100944.34
2022-08-02T20:32:05.882Z,100952.22
2022-08-02T20:34:36.208Z,100957.97
2022-08-02T20:38:00.131Z,100953.50
2022-08-02T20:39:52.555Z,100959.47
2022-08-02T20:42:23.585Z,100955.78
2022-08-02T20:45:00.485Z,100956.31
2022-08-02T20:47:39.603Z,100971.03
2022-08-02T20:50:31.481Z,100961.84
2022-08-02T20:53:04.143Z,100957.13
2022-08-02T20:55:32.472Z,100959.19
2022-08-02T20:58:04.510Z,100962.94
2022-08-02T21:00:32.258Z,100956.84
2022-08-02T21:03:02.641Z,100953.50
2022-08-02T21:05:54.265Z,100945.75
2022-08-02T21:08:21.228Z,100956.78
2022-08-02T21:10:51.742Z,100956.88
2022-08-02T21:13:24.350Z,100955.53
2022-08-02T21:15:57.634Z,100954.25
2022-08-02T21:18:40.256Z,100952.59
2022-08-02T21:21:10.171Z,100956.47
2022-08-02T21:23:44.918Z,100961.72
2022-08-02T21:26:19.867Z,100965.78
2022-08-02T21:28:55.919Z,100959.03
2022-08-02T21:31:29.848Z,100963.16
2022-08-02T21:34:00.675Z,100962.63
2022-08-02T21:36:32.261Z,100960.84
2022-08-02T21:39:04.987Z,100972.78
2022-08-02T21:41:46.281Z,100972.16
2022-08-02T21:44:21.875Z,100972.50
2022-08-02T21:46:56.159Z,100967.09
2022-08-02T21:49:41.115Z,100967.63
2022-08-02T21:52:14.166Z,100972.38
2022-08-02T21:54:45.420Z,100971.34
2022-08-02T21:57:15.544Z,100969.78
2022-08-02T21:59:52.741Z,100966.63
2022-08-02T22:02:30.780Z,100974.59
2022-08-02T22:04:59.084Z,100976.88
2022-08-02T22:07:38.715Z,100980.72
2022-08-02T22:10:10.285Z,100976.50
2022-08-02T22:12:38.002Z,100977.72
2022-08-02T22:15:11.651Z,100978.94
2022-08-02T22:17:53.510Z,100973.63
2022-08-02T22:20:39.255Z,100978.63
2022-08-02T22:23:12.795Z,100986.97
2022-08-02T22:25:44.725Z,100982.13
2022-08-02T22:28:39.341Z,100984.47
2022-08-02T22:31:04.834Z,100977.81
2022-08-02T22:34:01.569Z,100977.78
2022-08-02T22:36:44.077Z,100987.53
2022-08-02T22:39:19.426Z,100983.53
2022-08-02T22:42:05.470Z,100988.91
2022-08-02T22:44:35.928Z,100983.81
2022-08-02T22:47:13.726Z,100991.03
2022-08-02T22:49:54.307Z,100991.72
2022-08-02T22:52:24.490Z,100992.19
2022-08-02T22:54:51.947Z,100992.94
2022-08-02T22:57:30.094Z,100998.97
2022-08-02T22:58:44.225Z,100932.00
2022-08-02T22:58:48.781Z,100897.72
2022-08-02T23:00:00.469Z,100989.03
2022-08-02T23:02:27.797Z,101000.72
2022-08-02T23:04:55.088Z,101006.41
2022-08-02T23:07:22.545Z,101002.09
2022-08-02T23:09:49.880Z,101005.94
2022-08-02T23:12:20.047Z,101003.16
2022-08-02T23:14:51.788Z,101005.78
2022-08-02T23:17:38.811Z,100998.28
2022-08-02T23:20:09.763Z,101003.06
2022-08-02T23:22:37.936Z,101000.50
2022-08-02T23:25:07.315Z,101001.13
2022-08-02T23:27:35.614Z,101006.81
2022-08-02T23:30:04.688Z,101001.66
2022-08-02T23:32:31.942Z,100996.34
2022-08-02T23:34:59.396Z,100992.31
2022-08-02T23:37:27.084Z,100995.47
2022-08-02T23:39:54.338Z,101000.91
2022-08-02T23:42:23.521Z,100994.00
2022-08-02T23:44:51.306Z,101006.44
2022-08-02T23:47:19.199Z,101006.72
2022-08-02T23:49:46.979Z,101004.03
2022-08-02T23:52:14.560Z,100999.84
2022-08-02T23:54:42.025Z,100999.91
2022-08-02T23:57:20.362Z,101006.13
2022-08-02T23:59:54.265Z,100994.50
